Aviation Digital Data Service (ADDS)

Output produced by METARs form (0408 UTC 24 July 2014)
found at http://www.aviationweather.gov/adds/metars/
 
KAOO 240353Z AUTO 36008KT 10SM BKN016 OVC065 21/18 A2996 RMK AO2 SLP133 T02110178
KAOO 240334Z AUTO 35010KT 10SM FEW018 SCT026 OVC060 22/18 A2996 RMK AO2 T02170183
KAOO 240253Z AUTO 36009KT 10SM OVC023 22/18 A2997 RMK AO2 SLP135 T02220183 50012
KAOO 240153Z AUTO 34005KT 10SM BKN023 BKN070 23/18 A2997 RMK AO2 SLP137 T02280183
KAOO 240053Z AUTO 33009KT 10SM FEW031 24/19 A2996 RMK AO2 SLP131 T02390189
KAOO 232353Z AUTO 32009KT 10SM FEW040 26/19 A2993 RMK AO2 SLP122 60000 T02610189 10294 20261 53006
KAOO 232253Z AUTO 30008G17KT 10SM SCT042 BKN100 28/19 A2991 RMK AO2 RAB2154E04 SLP116 P0000 T02780194
KAOO 232153Z AUTO 29009G16KT 8SM FEW035 SCT050 BKN100 27/20 A2991 RMK AO2 SLP115 T02670200
KAOO 232053Z AUTO 28007KT 9SM FEW042 28/21 A2991 RMK AO2 LTG DSNT SE-W SLP117 T02780206 58012
KAOO 231953Z AUTO 31009KT 9SM BKN110 28/21 A2993 RMK AO2 LTG DSNT SE AND S SLP124 T02830211
KAOO 231853Z AUTO 29011KT 10SM SCT045 SCT055 29/21 A2994 RMK AO2 SLP127 T02890211
KAOO 231753Z AUTO 24008KT 10SM CLR 29/20 A2995 RMK AO2 SLP127 T02890200 10294 20233 56014
KAOO 231653Z AUTO 24009KT 200V260 10SM FEW038 29/22 A2995 RMK AO2 SLP129 T02890217
KAOO 231553Z AUTO 22011KT 10SM CLR 28/22 A2997 RMK AO2 SLP133 T02830222
KAOO 231453Z AUTO 21009KT 10SM FEW024 27/22 A2999 RMK AO2 SLP142 T02670222 56018
KAOO 231353Z AUTO 20006KT 10SM CLR 26/22 A3000 RMK AO2 SLP146 T02610222
KAOO 231253Z AUTO 21008KT 10SM CLR 24/22 A3002 RMK AO2 SLP153 T02440217
KAOO 231153Z AUTO 20005KT 10SM FEW037 FEW046 23/21 A3004 RMK AO2 SLP161 T02330211 10233 20189 50006
KAOO 231053Z AUTO 00000KT 4SM BR FEW075 21/19 A3005 RMK AO2 SLP166 T02060194
KAOO 230953Z AUTO 28004KT 6SM BR BKN075 20/19 A3004 RMK AO2 SLP162 T02000194
KAOO 230930Z AUTO 00000KT 3SM BR FEW070 20/19 A3003 RMK AO2 T02000194
KAOO 230923Z AUTO 00000KT 1 1/4SM BR CLR 20/19 A3003 RMK AO2 T02000194
KAOO 230912Z AUTO 00000KT 1/2SM FG CLR 19/19 A3002 RMK AO2 T01890189
KAOO 230908Z AUTO 00000KT 1 3/4SM BR CLR 20/19 A3002 RMK AO2 T02000194
KAOO 230853Z AUTO 00000KT 6SM BR CLR 20/20 A3002 RMK AO2 SLP154 T02000200 58015
KAOO 230753Z AUTO 00000KT 7SM CLR 21/21 A3004 RMK AO2 SLP159 T02110206
KAOO 230653Z AUTO 00000KT 6SM BR BKN040 21/21 A3007 RMK AO2 SLP168 T02110206
KAOO 230553Z AUTO 16003KT 10SM CLR 22/21 A3007 RMK AO2 SLP170 60000 T02170206 10261 20206 58010
KAOO 230453Z AUTO 20003KT 10SM SCT044 22/21 A3008 RMK AO2 SLP175 T02170206 403000178
KAOO 230353Z AUTO 20003KT 10SM FEW045 23/21 A3009 RMK AO2 SLP176 T02280206
KAOO 230253Z AUTO 19005KT 10SM BKN100 23/21 A3010 RMK AO2 SLP181 60000 T02330206 58002
KAOO 230153Z AUTO 17003KT 10SM FEW040 BKN095 24/21 A3011 RMK AO2 RAB05E19 SLP184 P0000 T02440211
KAOO 230053Z AUTO 26003KT 10SM BKN055 OVC075 26/21 A3010 RMK AO2 SLP182 T02560211
KAOO 222353Z AUTO 19004KT 10SM OVC070 26/22 A3011 RMK AO2 SLP183 T02610217 10300 20261 56002
KAOO 222253Z AUTO 18005KT 10SM OVC095 27/21 A3011 RMK AO2 SLP184 T02670211
KAOO 222153Z AUTO 18004KT 10SM BKN090 27/21 A3011 RMK AO2 SLP185 T02720211
KAOO 222053Z AUTO 17007KT 10SM SCT038 BKN049 28/21 A3011 RMK AO2 SLP185 T02830206 58016
KAOO 221953Z AUTO 20007KT 10SM FEW039 28/21 A3013 RMK AO2 SLP192 T02780206
KAOO 221853Z AUTO 16009KT 10SM OVC100 29/20 A3015 RMK AO2 SLP197 T02940200
KAOO 221753Z AUTO 15007KT 10SM FEW100 28/20 A3016 RMK AO2 SLP202 T02830200 10283 20217 58011
KAOO 221653Z AUTO 19006KT 10SM FEW023 FEW030 27/21 A3018 RMK AO2 SLP207 T02670206
KAOO 221640Z AUTO 17009KT 10SM SCT023 BKN030 27/21 A3018 RMK AO2 T02720206
KAOO 221619Z AUTO 21006KT 10SM SCT021 BKN028 26/22 A3019 RMK AO2 T02610217